Time;durP1;ratioP1;P1;durP2;ratioP2;P2;SDS_P1;SDS_P2;PMS_P1;PMS_P2;Temp;Humidity;BMP_temperature;BMP_pressure;BME280_temperature;BME280_humidity;BME280_pressure;Samples;Min_cycle;Max_cycle;Signal;HPM_P1;HPM_P2
2024/03/16 00:00:46;;;;;;;34.27;19.50;;;;;;;5.75;83.52;100483.34;1456146;88;21471;-77
2024/03/16 00:03:14;;;;;;;31.60;20.93;;;;;;;5.71;83.80;100488.96;1469173;88;21516;-77
2024/03/16 00:05:42;;;;;;;34.47;21.83;;;;;;;5.65;84.51;100490.25;1467246;88;22360;-76
2024/03/16 00:08:09;;;;;;;33.97;22.40;;;;;;;5.62;85.22;100487.86;1473732;88;21516;-76
2024/03/16 00:10:36;;;;;;;33.83;19.87;;;;;;;5.53;85.94;100492.00;1467352;88;21434;-76
2024/03/16 00:13:06;;;;;;;34.97;20.20;;;;;;;5.53;85.94;100492.00;1465981;88;21582;-75
2024/03/16 00:15:33;;;;;;;33.93;21.80;;;;;;;5.47;85.93;100488.97;1470176;88;21382;-76
2024/03/16 00:18:00;;;;;;;33.33;19.63;;;;;;;5.39;87.49;100486.94;1471119;88;21494;-75
2024/03/16 00:20:27;;;;;;;33.70;20.03;;;;;;;5.32;87.58;100489.19;1465999;88;21369;-76
2024/03/16 00:22:54;;;;;;;35.17;21.03;;;;;;;5.25;87.21;100486.62;1449346;88;21391;-76
2024/03/16 00:25:22;;;;;;;40.57;21.73;;;;;;;5.22;87.50;100489.48;1467752;88;21353;-75
2024/03/16 00:27:52;;;;;;;35.90;21.93;;;;;;;5.13;87.67;100475.72;1466766;88;21656;-76
2024/03/16 00:30:20;;;;;;;34.00;20.57;;;;;;;5.13;87.97;100475.72;1465110;88;21420;-76
2024/03/16 00:32:47;;;;;;;33.00;20.33;;;;;;;5.16;90.65;100491.23;1470560;88;22088;-75
2024/03/16 00:35:14;;;;;;;37.67;22.53;;;;;;;5.15;89.96;100482.98;1470535;88;22188;-76
2024/03/16 00:37:42;;;;;;;34.27;20.83;;;;;;;5.13;89.68;100470.47;1468496;88;21383;-75
2024/03/16 00:40:10;;;;;;;36.27;20.90;;;;;;;5.15;90.04;100479.91;1457013;88;23207;-75
2024/03/16 00:42:37;;;;;;;38.37;22.23;;;;;;;5.17;91.74;100486.34;1471618;88;22067;-76
2024/03/16 00:45:06;;;;;;;34.50;21.53;;;;;;;5.15;91.44;100482.98;1469420;88;22054;-76
2024/03/16 00:47:33;;;;;;;39.80;21.93;;;;;;;5.13;92.16;100477.03;1470256;88;22045;-76
2024/03/16 00:50:00;;;;;;;31.50;20.87;;;;;;;5.13;91.46;100489.67;1466432;88;22062;-75
2024/03/16 00:52:27;;;;;;;39.30;21.33;;;;;;;5.09;91.83;100477.73;1466065;88;23092;-75
2024/03/16 00:54:56;;;;;;;40.47;22.27;;;;;;;5.09;91.35;100480.81;1466433;88;22271;-76
2024/03/16 00:57:24;;;;;;;40.97;22.53;;;;;;;5.08;92.63;100474.73;1466162;88;22062;-76
2024/03/16 00:59:51;;;;;;;33.90;22.23;;;;;;;5.07;92.63;100474.37;1471485;88;22206;-75
2024/03/16 01:02:18;;;;;;;40.27;22.00;;;;;;;5.06;93.88;100470.54;1470534;88;22148;-76
2024/03/16 01:04:46;;;;;;;38.27;23.10;;;;;;;5.06;94.28;100471.37;1465418;88;22308;-75
2024/03/16 01:07:14;;;;;;;35.80;19.67;;;;;;;5.05;93.96;100472.33;1473850;88;22157;-76
2024/03/16 01:09:42;;;;;;;37.00;21.57;;;;;;;5.01;94.43;100466.12;1468684;88;22256;-76
2024/03/16 01:12:09;;;;;;;41.00;20.70;;;;;;;4.97;94.25;100477.29;1454496;88;22986;-76
2024/03/16 01:14:36;;;;;;;31.10;19.47;;;;;;;4.93;93.61;100471.44;1462825;88;22135;-76
2024/03/16 01:17:04;;;;;;;37.63;21.87;;;;;;;4.92;93.89;100473.70;1468698;88;22080;-76
2024/03/16 01:19:31;;;;;;;41.13;21.83;;;;;;;4.93;94.50;100470.13;1468899;88;22083;-76
2024/03/16 01:21:58;;;;;;;33.30;21.30;;;;;;;4.95;93.83;100460.37;1465491;88;22025;-76
2024/03/16 01:24:25;;;;;;;38.20;20.47;;;;;;;4.94;94.75;100472.27;1467177;88;22289;-76
2024/03/16 01:26:53;;;;;;;33.17;22.17;;;;;;;4.94;95.10;100467.85;1468383;88;22046;-75
2024/03/16 01:29:20;;;;;;;39.40;22.80;;;;;;;4.99;95.55;100459.66;1465792;88;23291;-75
2024/03/16 01:31:47;;;;;;;32.43;21.63;;;;;;;5.01;96.43;100459.56;1453216;88;22143;-75
2024/03/16 01:34:14;;;;;;;35.40;21.97;;;;;;;5.00;97.17;100455.25;1468629;88;22120;-76
2024/03/16 01:36:42;;;;;;;37.00;21.07;;;;;;;4.97;96.40;100454.52;1467551;88;22217;-76
2024/03/16 01:39:12;;;;;;;36.60;21.70;;;;;;;4.97;95.39;100450.58;1470962;88;22129;-77
2024/03/16 01:41:40;;;;;;;31.47;20.57;;;;;;;5.02;95.77;100450.73;1470611;88;22134;-75
2024/03/16 01:44:12;;;;;;;38.50;21.87;;;;;;;5.05;96.56;100452.66;1452827;88;22153;-74
2024/03/16 01:46:41;;;;;;;34.03;20.80;;;;;;;5.08;96.95;100452.43;1470595;88;22238;-74
2024/03/16 01:49:09;;;;;;;36.67;21.20;;;;;;;5.12;96.65;100449.10;1444802;88;22097;-75
2024/03/16 01:51:38;;;;;;;31.30;20.17;;;;;;;5.12;96.77;100443.86;1467855;88;22097;-77
2024/03/16 01:54:10;;;;;;;31.73;20.37;;;;;;;5.12;96.77;100443.86;1468335;88;21382;-74
2024/03/16 01:56:38;;;;;;;31.33;20.50;;;;;;;5.17;96.57;100454.86;1472467;88;22242;-76
2024/03/16 01:59:05;;;;;;;31.60;21.33;;;;;;;5.10;97.70;100452.34;1471364;88;22584;-75
2024/03/16 02:01:32;;;;;;;35.93;21.53;;;;;;;5.10;97.70;100452.34;1468468;88;22424;-75
2024/03/16 02:04:00;;;;;;;37.77;23.00;;;;;;;5.11;98.86;100457.94;1472644;88;22186;-75
2024/03/16 02:06:28;;;;;;;33.37;21.17;;;;;;;5.12;98.39;100456.52;1467157;88;22025;-76
2024/03/16 02:08:56;;;;;;;31.30;20.57;;;;;;;5.14;98.50;100459.84;1467439;88;22230;-74
2024/03/16 02:11:24;;;;;;;36.80;20.93;;;;;;;5.16;99.18;100459.27;1454578;88;21382;-74
2024/03/16 02:13:51;;;;;;;33.77;20.97;;;;;;;5.19;99.61;100455.59;1467191;88;22097;-74
2024/03/16 02:16:18;;;;;;;33.43;20.77;;;;;;;5.19;99.61;100455.59;1471166;88;21375;-74
2024/03/16 02:18:46;;;;;;;32.37;21.90;;;;;;;5.28;99.14;100467.20;1453980;88;23264;-75
2024/03/16 02:21:13;;;;;;;30.00;19.50;;;;;;;5.28;99.14;100467.20;1471217;88;22203;-75
2024/03/16 02:23:41;;;;;;;34.23;21.13;;;;;;;5.25;98.20;100461.70;1468020;88;22080;-76
2024/03/16 02:26:08;;;;;;;32.00;20.37;;;;;;;5.25;98.42;100466.95;1470502;88;23176;-75
2024/03/16 02:28:36;;;;;;;38.90;23.33;;;;;;;5.23;99.24;100470.15;1465091;88;22023;-75
2024/03/16 02:31:03;;;;;;;31.27;19.53;;;;;;;5.16;99.89;100468.45;1465751;88;23991;-74
2024/03/16 02:33:32;;;;;;;33.97;21.70;;;;;;;5.08;99.52;100472.11;1471426;88;22094;-75
2024/03/16 02:35:59;;;;;;;34.40;21.17;;;;;;;5.03;99.54;100469.45;1467439;88;22207;-75
2024/03/16 02:38:26;;;;;;;32.60;20.47;;;;;;;5.00;99.80;100481.48;1471038;88;22045;-75
2024/03/16 02:40:53;;;;;;;31.80;18.90;;;;;;;4.94;98.61;100480.97;1469028;88;22028;-75
2024/03/16 02:43:20;;;;;;;33.10;21.47;;;;;;;4.90;98.07;100480.83;1475464;88;23122;-76
2024/03/16 02:45:47;;;;;;;30.67;20.00;;;;;;;4.83;97.82;100478.27;1465406;88;22546;-74
2024/03/16 02:48:15;;;;;;;32.43;20.77;;;;;;;4.79;100.00;100476.83;1454429;88;23055;-74
2024/03/16 02:50:42;;;;;;;31.13;19.97;;;;;;;4.76;99.85;100474.42;1466552;88;22206;-75
2024/03/16 02:53:09;;;;;;;31.30;20.13;;;;;;;4.74;100.00;100472.38;1468616;88;23041;-75
2024/03/16 02:55:36;;;;;;;37.83;19.87;;;;;;;4.71;100.00;100477.36;1467831;88;22064;-74
2024/03/16 02:58:04;;;;;;;29.50;19.13;;;;;;;4.69;100.00;100477.10;1472192;88;22082;-75
2024/03/16 03:00:32;;;;;;;33.67;21.63;;;;;;;4.71;100.00;100484.39;1463200;88;22959;-76
2024/03/16 03:02:59;;;;;;;32.93;20.50;;;;;;;4.76;100.00;100483.60;1464557;88;22284;-76
2024/03/16 03:05:26;;;;;;;30.27;18.93;;;;;;;4.77;100.00;100482.64;1465015;88;23064;-75
2024/03/16 03:07:53;;;;;;;31.80;21.90;;;;;;;4.76;100.00;100486.22;1469697;88;22080;-77
2024/03/16 03:10:21;;;;;;;32.50;20.70;;;;;;;4.76;100.00;100482.30;1454325;88;22146;-76
2024/03/16 03:12:49;;;;;;;34.70;19.33;;;;;;;4.73;100.00;100476.79;1471805;88;22279;-76
2024/03/16 03:15:16;;;;;;;35.10;21.87;;;;;;;4.72;100.00;100480.84;1467759;88;22139;-75
2024/03/16 03:17:44;;;;;;;31.10;18.50;;;;;;;4.68;100.00;100487.23;1466763;88;22082;-75
2024/03/16 03:20:11;;;;;;;29.67;19.17;;;;;;;4.67;100.00;100485.57;1470251;88;22066;-76
2024/03/16 03:22:39;;;;;;;33.10;20.83;;;;;;;4.67;100.00;100490.81;1466598;88;23011;-76
2024/03/16 03:25:06;;;;;;;29.90;20.60;;;;;;;4.69;100.00;100488.90;1473407;88;22213;-77
2024/03/16 03:27:34;;;;;;;37.17;22.20;;;;;;;4.70;100.00;100486.66;1472126;88;22960;-76
2024/03/16 03:30:01;;;;;;;29.53;20.43;;;;;;;4.69;100.00;100484.97;1465655;88;22224;-77
2024/03/16 03:32:29;;;;;;;31.87;19.87;;;;;;;4.65;100.00;100483.52;1464921;88;22065;-77
2024/03/16 03:34:56;;;;;;;27.57;18.17;;;;;;;4.61;100.00;100493.88;1466440;88;23091;-76
2024/03/16 03:37:23;;;;;;;35.23;19.43;;;;;;;4.56;100.00;100481.55;1469137;88;22051;-77
2024/03/16 03:39:52;;;;;;;34.60;20.60;;;;;;;4.50;100.00;100486.27;1447574;88;23279;-76
2024/03/16 03:42:24;;;;;;;33.40;20.83;;;;;;;4.48;100.00;100488.16;1468873;88;22128;-77
2024/03/16 03:45:00;;;;;;;30.67;20.03;;;;;;;4.50;100.00;100499.38;1478060;88;22287;-77
2024/03/16 03:47:30;;;;;;;34.33;21.50;;;;;;;4.51;100.00;100496.28;1467372;88;22691;-77
2024/03/16 03:49:50;;;;;;;29.43;20.60;;;;;;;4.56;100.00;100499.91;1468821;88;23221;-77
2024/03/16 03:52:18;;;;;;;35.70;23.00;;;;;;;4.58;100.00;100491.47;1474534;88;22184;-77
2024/03/16 03:54:45;;;;;;;31.73;20.30;;;;;;;4.59;100.00;100493.12;1450089;88;22185;-77
2024/03/16 03:57:12;;;;;;;27.67;18.87;;;;;;;4.61;100.00;100495.19;1454196;88;22029;-76
2024/03/16 03:59:39;;;;;;;36.27;20.03;;;;;;;4.61;100.00;100497.33;1466645;88;22064;-77
2024/03/16 04:02:07;;;;;;;33.47;21.07;;;;;;;4.60;100.00;100498.73;1476224;88;22324;-77
2024/03/16 04:04:34;;;;;;;30.27;20.33;;;;;;;4.60;100.00;100505.28;1468467;88;21993;-76
2024/03/16 04:07:01;;;;;;;37.67;23.13;;;;;;;4.58;100.00;100507.20;1469668;88;23612;-76
2024/03/16 04:09:28;;;;;;;31.93;19.77;;;;;;;4.56;100.00;100506.45;1457472;88;22149;-76
2024/03/16 04:11:56;;;;;;;30.57;20.90;;;;;;;4.53;100.00;100507.02;1469138;88;22297;-76
2024/03/16 04:14:23;;;;;;;32.83;20.90;;;;;;;4.53;100.00;100507.02;1470148;88;22087;-76
2024/03/16 04:16:50;;;;;;;38.47;21.27;;;;;;;4.54;100.00;100513.09;1470631;88;22286;-76
2024/03/16 04:19:17;;;;;;;33.60;20.87;;;;;;;4.54;100.00;100506.55;1465995;88;23052;-76
2024/03/16 04:21:49;;;;;;;39.43;22.57;;;;;;;4.56;100.00;100513.01;1461474;88;22073;-76
2024/03/16 04:24:14;;;;;;;38.30;21.63;;;;;;;4.60;100.00;100511.36;1467162;88;22216;-76
2024/03/16 04:26:41;;;;;;;31.67;21.80;;;;;;;4.62;100.00;100516.51;1471570;88;23134;-76
2024/03/16 04:29:09;;;;;;;31.50;21.00;;;;;;;4.60;100.00;100520.53;1471710;88;22191;-77
2024/03/16 04:31:37;;;;;;;30.27;20.23;;;;;;;4.61;100.00;100519.61;1462543;88;22360;-77
2024/03/16 04:34:05;;;;;;;31.73;20.07;;;;;;;4.63;100.00;100520.80;1466885;88;22124;-75
2024/03/16 04:36:32;;;;;;;32.10;19.93;;;;;;;4.66;100.00;100511.41;1457653;88;22058;-76
2024/03/16 04:38:59;;;;;;;37.23;19.47;;;;;;;4.67;100.00;100512.62;1473862;88;22139;-76
2024/03/16 04:41:27;;;;;;;31.53;19.63;;;;;;;4.70;100.00;100516.81;1470621;88;23156;-76
2024/03/16 04:43:54;;;;;;;31.47;19.37;;;;;;;4.71;100.00;100521.10;1476642;88;22147;-76
2024/03/16 04:46:21;;;;;;;30.03;19.07;;;;;;;4.75;100.00;100512.09;1467360;88;23153;-74
2024/03/16 04:48:48;;;;;;;27.27;19.13;;;;;;;4.79;100.00;100519.27;1471804;88;22146;-75
2024/03/16 04:51:16;;;;;;;27.97;18.30;;;;;;;4.75;100.00;100518.17;1454516;88;23142;-75
2024/03/16 04:53:43;;;;;;;25.93;18.57;;;;;;;4.77;100.00;100521.14;1452312;88;22197;-75
2024/03/16 04:56:10;;;;;;;30.40;19.37;;;;;;;4.80;100.00;100517.83;1467171;88;23142;-75
2024/03/16 04:58:38;;;;;;;28.13;18.47;;;;;;;4.85;100.00;100511.79;1473980;88;22042;-75
2024/03/16 05:01:05;;;;;;;30.33;18.83;;;;;;;4.90;100.00;100521.48;1473117;88;23194;-74
2024/03/16 05:03:32;;;;;;;31.07;19.47;;;;;;;4.95;100.00;100522.00;1479489;88;22198;-73
2024/03/16 05:05:59;;;;;;;34.00;18.70;;;;;;;4.97;100.00;100525.33;1469415;88;23698;-73
2024/03/16 05:08:27;;;;;;;34.10;20.63;;;;;;;4.98;100.00;100529.66;1465846;88;22118;-73
2024/03/16 05:10:54;;;;;;;30.07;17.97;;;;;;;5.00;100.00;100537.88;1467922;88;23069;-73
2024/03/16 05:13:21;;;;;;;33.90;19.70;;;;;;;5.04;100.00;100527.55;1466882;88;22136;-73
2024/03/16 05:15:48;;;;;;;30.77;19.17;;;;;;;5.11;100.00;100527.45;1466360;88;22125;-73
2024/03/16 05:18:16;;;;;;;25.10;17.43;;;;;;;5.17;100.00;100533.57;1473270;88;22154;-73
2024/03/16 05:20:44;;;;;;;31.97;20.37;;;;;;;5.21;100.00;100533.73;1466591;88;22225;-73
2024/03/16 05:23:11;;;;;;;26.07;16.97;;;;;;;5.28;100.00;100534.95;1468082;88;22967;-74
2024/03/16 05:25:39;;;;;;;29.03;18.90;;;;;;;5.28;100.00;100528.39;1451553;88;21590;-73
2024/03/16 05:28:06;;;;;;;32.63;19.83;;;;;;;5.38;100.00;100529.41;1471424;88;21434;-74
2024/03/16 05:30:33;;;;;;;29.53;17.70;;;;;;;5.48;100.00;100539.23;1465047;88;21519;-74
2024/03/16 05:33:00;;;;;;;26.67;18.03;;;;;;;5.52;100.00;100534.11;1463475;88;21412;-74
2024/03/16 05:35:28;;;;;;;24.23;17.17;;;;;;;5.57;100.00;100536.77;1470427;88;22308;-74
2024/03/16 05:37:55;;;;;;;28.20;17.77;;;;;;;5.65;100.00;100536.20;1472237;88;21346;-74
2024/03/16 05:40:23;;;;;;;24.10;16.50;;;;;;;5.73;100.00;100539.59;1469784;88;21449;-75
2024/03/16 05:42:50;;;;;;;27.50;17.47;;;;;;;5.79;100.00;100544.38;1467652;88;21515;-74
2024/03/16 05:45:17;;;;;;;25.90;17.97;;;;;;;5.80;100.00;100544.25;1473273;88;21376;-75
2024/03/16 05:47:44;;;;;;;23.93;16.03;;;;;;;5.84;100.00;100538.28;1468073;88;22263;-75
2024/03/16 05:50:12;;;;;;;27.73;16.53;;;;;;;5.94;100.00;100541.12;1459447;88;21538;-75
2024/03/16 05:52:39;;;;;;;27.13;16.43;;;;;;;6.06;100.00;100537.56;1465275;88;22903;-75
2024/03/16 05:55:06;;;;;;;29.77;16.27;;;;;;;6.17;100.00;100544.16;1474671;88;21383;-75
2024/03/16 05:57:34;;;;;;;28.70;16.60;;;;;;;6.23;100.00;100541.54;1462759;88;21609;-75
2024/03/16 06:00:03;;;;;;;30.20;16.93;;;;;;;6.32;100.00;100544.29;1470814;88;21368;-75
2024/03/16 06:02:30;;;;;;;25.17;15.97;;;;;;;6.41;100.00;100539.28;1462954;88;21420;-74
2024/03/16 06:04:57;;;;;;;21.43;14.73;;;;;;;6.47;100.00;100540.12;1453030;88;21469;-75
2024/03/16 06:07:24;;;;;;;28.67;16.40;;;;;;;6.49;100.00;100539.53;1470482;88;21316;-75
2024/03/16 06:09:52;;;;;;;27.87;15.90;;;;;;;6.55;100.00;100539.89;1453172;88;21472;-74
2024/03/16 06:12:19;;;;;;;22.50;15.73;;;;;;;6.61;100.00;100543.01;1452298;88;21815;-75
2024/03/16 06:14:46;;;;;;;28.07;16.80;;;;;;;6.65;100.00;100543.14;1471786;88;21332;-75
2024/03/16 06:17:14;;;;;;;31.90;17.97;;;;;;;6.75;100.00;100548.86;1462110;88;21331;-75
2024/03/16 06:19:41;;;;;;;23.37;16.43;;;;;;;6.83;100.00;100548.27;1467114;88;21481;-75
2024/03/16 06:22:08;;;;;;;26.30;17.93;;;;;;;6.94;100.00;100546.95;1467544;88;21449;-75
2024/03/16 06:24:35;;;;;;;26.03;16.80;;;;;;;7.03;100.00;100544.06;1466629;88;21295;-75
2024/03/16 06:27:06;;;;;;;22.40;14.77;;;;;;;7.19;100.00;100548.48;1466720;88;21375;-74
2024/03/16 06:29:33;;;;;;;26.68;14.75;;;;;;;7.32;100.00;100546.16;1472157;88;22503;-75
2024/03/16 06:32:06;;;;;;;23.43;14.00;;;;;;;7.42;100.00;100549.71;1463566;88;21389;-75
2024/03/16 06:34:34;;;;;;;18.80;12.97;;;;;;;7.52;100.00;100548.02;1470842;88;21449;-75
2024/03/16 06:37:03;;;;;;;20.13;12.83;;;;;;;7.62;100.00;100553.36;1464891;88;22414;-75
2024/03/16 06:39:30;;;;;;;20.00;14.00;;;;;;;7.74;100.00;100562.05;1476384;88;21368;-75
2024/03/16 06:41:57;;;;;;;19.17;13.37;;;;;;;7.83;100.00;100562.16;1467280;88;21360;-75
2024/03/16 06:44:24;;;;;;;21.00;13.67;;;;;;;7.91;100.00;100567.62;1474214;88;21309;-75
2024/03/16 06:46:52;;;;;;;19.13;13.33;;;;;;;8.00;100.00;100564.72;1470950;88;22798;-75
2024/03/16 06:49:19;;;;;;;18.63;11.63;;;;;;;8.08;100.00;100574.11;1471467;88;21353;-74
2024/03/16 06:51:46;;;;;;;28.87;19.50;;;;;;;8.18;100.00;100571.56;1473550;88;21588;-75
2024/03/16 06:54:13;;;;;;;32.23;14.50;;;;;;;8.23;100.00;100572.47;1471613;88;21368;-76
2024/03/16 06:56:40;;;;;;;16.63;11.37;;;;;;;8.32;100.00;100577.00;1470550;88;22878;-74
2024/03/16 06:59:08;;;;;;;19.03;12.43;;;;;;;8.40;100.00;100572.41;1450697;88;21324;-75
2024/03/16 07:01:35;;;;;;;20.90;13.43;;;;;;;8.49;100.00;100576.44;1461500;88;21390;-73
2024/03/16 07:04:02;;;;;;;25.30;13.43;;;;;;;8.62;100.00;100588.09;1469570;88;21507;-74
2024/03/16 07:06:30;;;;;;;16.93;12.37;;;;;;;8.75;100.00;100585.25;1471248;88;22839;-75
2024/03/16 07:09:00;;;;;;;17.27;11.37;;;;;;;8.90;100.00;100582.59;1466315;88;21420;-74
2024/03/16 07:11:26;;;;;;;17.33;11.03;;;;;;;8.99;98.90;100584.43;1460786;88;21566;-74
2024/03/16 07:13:53;;;;;;;17.40;11.47;;;;;;;9.14;98.36;100591.49;1468545;88;21361;-73
2024/03/16 07:16:21;;;;;;;17.80;12.00;;;;;;;9.23;94.43;100581.92;1469290;88;21382;-74
2024/03/16 07:18:48;;;;;;;17.27;11.90;;;;;;;9.32;91.91;100580.28;1449755;88;21582;-74
2024/03/16 07:21:15;;;;;;;18.63;11.50;;;;;;;9.44;90.77;100584.50;1435349;88;21353;-75
2024/03/16 07:23:43;;;;;;;15.67;10.97;;;;;;;9.54;88.36;100583.18;1452032;88;21382;-75
2024/03/16 07:26:11;;;;;;;17.63;10.83;;;;;;;9.61;86.39;100584.28;1467322;88;21486;-75
2024/03/16 07:28:38;;;;;;;16.07;10.17;;;;;;;9.73;86.01;100593.78;1467166;88;22226;-75
2024/03/16 07:31:05;;;;;;;13.27;9.93;;;;;;;9.82;84.67;100588.15;1461381;88;21427;-75
2024/03/16 07:33:34;;;;;;;14.37;10.67;;;;;;;9.91;83.88;100589.95;1441988;90;21490;-74
2024/03/16 07:36:04;;;;;;;17.17;11.17;;;;;;;9.92;80.14;100588.48;1441662;90;22278;-75
2024/03/16 07:38:31;;;;;;;16.00;10.43;;;;;;;10.03;81.16;100590.64;1475121;88;21398;-75
2024/03/16 07:40:58;;;;;;;15.57;11.17;;;;;;;10.14;81.00;100587.36;1461803;88;21390;-75
2024/03/16 07:43:25;;;;;;;16.33;11.50;;;;;;;10.25;80.52;100589.52;1469859;88;21546;-75
2024/03/16 07:45:53;;;;;;;14.93;11.10;;;;;;;10.36;79.63;100589.39;1461084;88;21442;-77
2024/03/16 07:48:22;;;;;;;16.83;11.77;;;;;;;10.47;79.88;100587.05;1471786;88;21360;-76
2024/03/16 07:50:49;;;;;;;19.43;11.83;;;;;;;10.64;80.23;100586.80;1471440;88;21526;-75
2024/03/16 07:53:16;;;;;;;16.43;11.43;;;;;;;10.76;78.88;100583.85;1469894;88;21486;-76
2024/03/16 07:55:44;;;;;;;17.27;10.60;;;;;;;10.87;77.52;100589.92;1468620;88;21287;-76
2024/03/16 07:58:11;;;;;;;15.33;11.13;;;;;;;10.92;75.15;100592.48;1470658;88;22484;-75
2024/03/16 08:00:38;;;;;;;12.90;9.60;;;;;;;10.95;75.88;100584.74;1455838;88;21324;-75
2024/03/16 08:03:05;;;;;;;18.90;11.63;;;;;;;11.05;76.43;100582.89;1437042;90;21481;-75
2024/03/16 08:05:32;;;;;;;17.40;11.87;;;;;;;11.15;75.82;100587.64;1436777;90;21427;-75
2024/03/16 08:08:00;;;;;;;15.37;9.63;;;;;;;11.23;75.27;100591.71;1439751;90;21272;-76
2024/03/16 08:10:28;;;;;;;15.47;11.20;;;;;;;11.24;73.96;100589.39;1474721;88;21426;-76
2024/03/16 08:12:55;;;;;;;18.90;10.50;;;;;;;11.28;73.83;100584.16;1470416;88;21419;-77
2024/03/16 08:15:22;;;;;;;14.20;9.87;;;;;;;11.28;73.28;100580.19;1466567;88;21507;-74
2024/03/16 08:17:52;;;;;;;19.70;9.90;;;;;;;11.35;73.36;100583.56;1453926;88;22782;-75
2024/03/16 08:20:19;;;;;;;17.77;11.40;;;;;;;11.38;72.94;100588.06;1466673;88;22409;-75
2024/03/16 08:22:48;;;;;;;11.73;8.50;;;;;;;11.47;73.33;100585.84;1460832;88;21449;-75
2024/03/16 08:25:15;;;;;;;16.83;10.17;;;;;;;11.54;72.70;100580.80;1369457;90;21274;-76
2024/03/16 08:27:42;;;;;;;13.80;9.57;;;;;;;11.65;72.71;100585.88;1368317;90;21463;-76
2024/03/16 08:30:10;;;;;;;17.67;10.40;;;;;;;11.75;72.30;100585.80;1393994;88;21472;-76
2024/03/16 08:32:37;;;;;;;15.47;10.43;;;;;;;11.86;71.28;100582.95;1393512;88;21493;-76
2024/03/16 08:35:06;;;;;;;15.23;9.60;;;;;;;11.95;71.18;100581.20;1400004;88;21432;-76
2024/03/16 08:37:33;;;;;;;17.47;10.60;;;;;;;12.09;71.23;100581.16;1370101;90;21464;-75
2024/03/16 08:40:01;;;;;;;13.57;9.60;;;;;;;12.17;70.69;100577.25;1367783;90;21280;-76
2024/03/16 08:42:28;;;;;;;15.37;9.73;;;;;;;12.28;70.24;100581.45;1534455;88;22360;-75
2024/03/16 08:44:55;;;;;;;17.00;9.77;;;;;;;12.38;69.59;100583.03;1394185;88;21331;-76
2024/03/16 08:47:22;;;;;;;14.20;10.33;;;;;;;12.51;69.58;100584.43;1393860;88;22309;-75
2024/03/16 08:49:49;;;;;;;20.33;10.80;;;;;;;12.62;69.39;100582.34;1394188;88;21265;-75
2024/03/16 08:52:17;;;;;;;12.90;10.60;;;;;;;12.76;69.49;100586.24;1399678;88;22294;-76
2024/03/16 08:54:44;;;;;;;13.37;9.83;;;;;;;12.92;69.16;100585.51;1394191;88;21340;-76
2024/03/16 08:57:11;;;;;;;13.00;9.23;;;;;;;12.99;67.82;100581.20;1371603;90;21347;-75
2024/03/16 08:59:38;;;;;;;12.07;8.23;;;;;;;13.00;65.43;100577.55;1352957;92;21457;-75
2024/03/16 09:02:05;;;;;;;9.30;6.87;;;;;;;12.98;63.02;100584.04;1462619;88;21434;-76
2024/03/16 09:04:33;;;;;;;11.37;7.07;;;;;;;13.00;64.11;100581.53;1475504;88;22328;-76
2024/03/16 09:07:00;;;;;;;9.53;7.07;;;;;;;13.06;63.76;100584.91;1454591;88;21338;-76
2024/03/16 09:09:27;;;;;;;10.23;7.43;;;;;;;13.12;63.17;100583.91;1444333;90;21450;-76
2024/03/16 09:11:54;;;;;;;28.40;15.57;;;;;;;13.13;62.22;100586.42;1470772;88;21552;-76
2024/03/16 09:14:21;;;;;;;20.60;11.97;;;;;;;13.25;62.76;100581.64;1465286;88;21361;-76
2024/03/16 09:16:49;;;;;;;16.97;9.07;;;;;;;13.33;62.15;100584.36;1467838;88;21475;-76
2024/03/16 09:19:16;;;;;;;21.53;14.30;;;;;;;13.46;62.06;100583.38;1471979;88;21353;-75
2024/03/16 09:21:43;;;;;;;11.63;9.23;;;;;;;13.61;62.13;100583.61;1471292;88;21531;-75
2024/03/16 09:24:10;;;;;;;21.50;11.23;;;;;;;13.75;60.99;100583.44;1467973;88;21545;-76
2024/03/16 09:26:37;;;;;;;15.00;8.60;;;;;;;13.85;60.86;100584.62;1468777;88;21464;-75
2024/03/16 09:29:04;;;;;;;18.23;8.87;;;;;;;13.94;59.96;100584.96;1466555;88;21308;-75
2024/03/16 09:31:32;;;;;;;13.30;8.53;;;;;;;14.11;59.74;100581.30;1467770;88;21367;-76
2024/03/16 09:34:01;;;;;;;20.13;8.43;;;;;;;14.27;58.19;100578.29;1468918;88;21323;-76
2024/03/16 09:36:28;;;;;;;10.37;7.37;;;;;;;14.34;57.77;100581.45;1444382;90;21428;-76
2024/03/16 09:38:56;;;;;;;12.27;7.60;;;;;;;14.47;58.05;100577.44;1424595;91;22419;-79
2024/03/16 09:41:23;;;;;;;12.33;7.13;;;;;;;14.48;56.89;100577.28;1467978;88;21575;-77
2024/03/16 09:43:53;;;;;;;12.53;8.33;;;;;;;14.56;56.91;100573.30;1444198;90;21391;-77
2024/03/16 09:46:23;;;;;;;17.23;9.60;;;;;;;14.64;56.56;100569.77;1451898;88;21913;-77
2024/03/16 09:48:51;;;;;;;;;;;;;;;14.63;55.91;100572.11;1472374;88;21493;-76
2024/03/16 09:51:18;;;;;;;15.87;9.37;;;;;;;14.59;55.50;100568.97;1470952;88;20298;-76
2024/03/16 09:53:45;;;;;;;15.77;8.27;;;;;;;14.59;56.00;100568.97;1466270;88;21479;-76
2024/03/16 09:56:16;;;;;;;14.13;9.03;;;;;;;14.59;55.78;100566.30;1451498;88;21480;-76
2024/03/16 09:58:42;;;;;;;17.03;8.33;;;;;;;14.54;54.26;100567.81;1454474;88;22595;-75
2024/03/16 10:01:09;;;;;;;14.43;8.17;;;;;;;14.51;54.51;100572.94;1429027;90;21509;-76
2024/03/16 10:03:37;;;;;;;11.50;7.77;;;;;;;14.52;54.30;100569.30;1474389;88;21412;-77
2024/03/16 10:06:05;;;;;;;14.63;8.87;;;;;;;14.63;55.55;100570.78;1443547;90;21614;-75
2024/03/16 10:08:33;;;;;;;15.67;9.00;;;;;;;14.75;54.74;100565.91;1422448;91;21346;-77
2024/03/16 10:11:15;;;;;;;12.50;9.30;;;;;;;14.77;54.27;100568.74;1465224;88;21455;-76
2024/03/16 10:13:58;;;;;;;11.10;8.23;;;;;;;14.78;53.91;100569.56;1470283;88;21464;-76
2024/03/16 10:16:25;;;;;;;13.07;9.17;;;;;;;14.73;52.82;100564.77;1468468;88;21538;-75
2024/03/16 10:18:55;;;;;;;16.70;11.70;;;;;;;14.69;52.74;100570.09;1467998;88;21621;-75
2024/03/16 10:21:23;;;;;;;10.75;8.40;;;;;;;14.76;53.81;100569.76;1468849;88;22226;-76
2024/03/16 10:23:50;;;;;;;9.33;7.93;;;;;;;14.83;52.07;100566.72;1468700;88;21405;-77
2024/03/16 10:26:17;;;;;;;11.33;8.70;;;;;;;14.95;53.13;100566.35;1455263;88;21899;-76
2024/03/16 10:28:46;;;;;;;14.73;11.50;;;;;;;15.13;53.44;100572.26;1440759;90;22786;-77
2024/03/16 10:31:13;;;;;;;11.37;9.20;;;;;;;15.32;51.58;100571.83;1436320;90;21427;-76
2024/03/16 10:33:41;;;;;;;13.30;8.30;;;;;;;15.47;52.18;100569.75;1440293;90;21419;-75
2024/03/16 10:36:17;;;;;;;11.67;8.50;;;;;;;15.55;51.07;100565.70;1420847;90;22420;-76
2024/03/16 10:38:47;;;;;;;14.63;9.60;;;;;;;15.59;50.14;100567.00;1466628;88;21434;-76
2024/03/16 10:41:16;;;;;;;11.00;8.13;;;;;;;15.63;49.09;100568.33;1469291;88;22416;-76
2024/03/16 10:43:45;;;;;;;12.30;9.27;;;;;;;15.64;49.70;100567.30;1369370;90;22310;-76
2024/03/16 10:46:15;;;;;;;14.33;8.50;;;;;;;15.66;49.47;100557.30;1369247;90;21288;-75
2024/03/16 10:48:43;;;;;;;14.20;10.15;;;;;;;15.68;49.88;100560.66;1390699;88;21236;-75
2024/03/16 10:51:17;;;;;;;15.73;8.50;;;;;;;15.69;49.34;100559.64;1394163;88;21376;-77
2024/03/16 10:53:46;;;;;;;10.90;8.70;;;;;;;15.54;49.01;100557.39;1374432;90;22278;-76
2024/03/16 10:56:15;;;;;;;10.53;7.97;;;;;;;15.54;48.49;100561.39;1375362;90;22152;-76
2024/03/16 10:58:44;;;;;;;13.48;10.05;;;;;;;15.53;49.58;100553.04;1391281;88;21325;-76
2024/03/16 11:01:19;;;;;;;12.27;9.43;;;;;;;15.53;49.76;100554.38;1393760;88;21213;-76
2024/03/16 11:03:52;;;;;;;12.67;10.37;;;;;;;15.45;49.64;100551.75;1553588;88;21302;-76
2024/03/16 11:06:21;;;;;;;16.90;10.90;;;;;;;15.45;50.09;100547.75;1391697;89;21301;-75
2024/03/16 11:08:50;;;;;;;14.13;8.60;;;;;;;15.45;50.16;100549.09;1392377;88;21310;-75
2024/03/16 11:11:23;;;;;;;12.87;8.17;;;;;;;15.46;49.85;100548.92;1398009;88;21279;-76
2024/03/16 11:14:11;;;;;;;10.30;7.93;;;;;;;15.47;49.93;100554.58;1389973;88;21324;-76
2024/03/16 11:16:43;;;;;;;10.17;7.20;;;;;;;15.47;49.54;100541.23;1390698;88;21390;-77